createdAt,value
2024-01-30T00:00:33.429Z,69.73
2024-01-30T00:03:00.118Z,70.18
2024-01-30T00:05:26.846Z,69.68
2024-01-30T00:07:53.557Z,69.23
2024-01-30T00:10:20.333Z,68.02
2024-01-30T00:12:47.034Z,68.68
2024-01-30T00:15:13.747Z,68.51
2024-01-30T00:17:40.438Z,68.88
2024-01-30T00:20:07.293Z,69.11
2024-01-30T00:22:34.019Z,70.71
2024-01-30T00:25:00.866Z,70.68
2024-01-30T00:27:27.544Z,69.51
2024-01-30T00:29:54.160Z,69.21
2024-01-30T00:32:20.904Z,70.44
2024-01-30T00:34:47.715Z,69.52
2024-01-30T00:37:14.401Z,69.69
2024-01-30T00:39:41.145Z,68.29
2024-01-30T00:42:07.808Z,68.54
2024-01-30T00:44:34.449Z,68.30
2024-01-30T00:47:01.124Z,66.85
2024-01-30T00:49:27.856Z,67.77
2024-01-30T00:51:54.602Z,66.42
2024-01-30T00:54:21.333Z,66.82
2024-01-30T00:56:47.988Z,65.41
2024-01-30T00:59:14.603Z,66.05
2024-01-30T01:01:41.444Z,67.84
2024-01-30T01:04:08.198Z,68.60
2024-01-30T01:06:34.884Z,70.70
2024-01-30T01:09:04.398Z,70.58
2024-01-30T01:11:31.955Z,70.83
2024-01-30T01:13:58.701Z,69.70
2024-01-30T01:16:25.958Z,68.86
2024-01-30T01:18:52.749Z,67.68
2024-01-30T01:21:19.408Z,67.70
2024-01-30T01:23:46.093Z,69.58
2024-01-30T01:26:12.792Z,69.53
2024-01-30T01:28:39.408Z,70.19
2024-01-30T01:31:06.271Z,69.42
2024-01-30T01:33:33.276Z,68.66
2024-01-30T01:35:59.955Z,67.47
2024-01-30T01:38:26.653Z,69.56
2024-01-30T01:40:53.270Z,68.77
2024-01-30T01:43:19.993Z,70.02
2024-01-30T01:45:46.872Z,70.59
2024-01-30T01:48:13.660Z,70.16
2024-01-30T01:50:40.438Z,69.57
2024-01-30T01:53:07.154Z,69.23
2024-01-30T01:55:33.768Z,69.84
2024-01-30T01:58:00.449Z,70.13
2024-01-30T02:00:27.142Z,71.62
2024-01-30T02:02:53.813Z,71.78
2024-01-30T02:05:20.467Z,70.99
2024-01-30T02:07:47.263Z,71.07
2024-01-30T02:10:14.016Z,72.04
2024-01-30T02:12:40.718Z,70.37
2024-01-30T02:15:07.449Z,69.32
2024-01-30T02:17:34.130Z,70.37
2024-01-30T02:20:01.034Z,69.36
2024-01-30T02:22:27.912Z,68.76
2024-01-30T02:24:54.604Z,69.04
2024-01-30T02:27:21.262Z,68.80
2024-01-30T02:29:47.941Z,69.05
2024-01-30T02:32:14.625Z,69.64
2024-01-30T02:34:41.376Z,68.43
2024-01-30T02:37:08.223Z,69.17
2024-01-30T02:39:34.883Z,69.07
2024-01-30T02:42:01.510Z,68.44
2024-01-30T02:44:28.225Z,68.38
2024-01-30T02:46:54.905Z,68.79
2024-01-30T02:49:21.605Z,66.32
2024-01-30T02:51:48.336Z,67.24
2024-01-30T02:54:14.986Z,67.92
2024-01-30T02:56:41.620Z,67.49
2024-01-30T02:59:08.323Z,68.28
2024-01-30T03:01:34.993Z,69.13
2024-01-30T03:06:46.094Z,68.31
2024-01-30T03:09:12.776Z,68.70
2024-01-30T03:11:39.445Z,69.04
2024-01-30T03:14:06.172Z,69.37
2024-01-30T03:16:32.813Z,69.05
2024-01-30T03:18:59.533Z,68.32
2024-01-30T03:21:26.293Z,67.28
2024-01-30T03:23:52.941Z,69.21
2024-01-30T03:26:19.566Z,70.08
2024-01-30T03:28:46.340Z,69.62
2024-01-30T03:31:13.073Z,67.94
2024-01-30T03:33:39.764Z,66.61
2024-01-30T03:36:06.534Z,67.11
2024-01-30T03:38:33.171Z,67.65
2024-01-30T03:40:59.813Z,69.24
2024-01-30T03:43:26.544Z,67.96
2024-01-30T03:45:53.258Z,67.82
2024-01-30T03:48:19.900Z,67.13
2024-01-30T03:50:46.620Z,68.46
2024-01-30T03:53:13.250Z,67.47
2024-01-30T03:55:39.873Z,66.88
2024-01-30T03:58:06.659Z,67.82
2024-01-30T04:00:33.335Z,66.08
2024-01-30T04:02:59.990Z,65.97
2024-01-30T04:05:26.723Z,64.59
2024-01-30T04:07:53.344Z,67.58
2024-01-30T04:10:19.996Z,70.14
2024-01-30T04:12:46.790Z,68.43
2024-01-30T04:15:13.432Z,68.41
2024-01-30T04:17:40.067Z,69.19
2024-01-30T04:20:06.892Z,70.28
2024-01-30T04:22:33.627Z,68.15
2024-01-30T04:25:00.371Z,67.13
2024-01-30T04:27:27.092Z,68.51
2024-01-30T04:29:53.739Z,68.34
2024-01-30T04:32:20.386Z,68.45
2024-01-30T04:34:47.344Z,69.32
2024-01-30T04:37:14.100Z,68.33
2024-01-30T04:39:40.790Z,68.16
2024-01-30T04:42:09.666Z,68.30
2024-01-30T04:44:36.575Z,68.63
2024-01-30T04:47:03.216Z,68.64
2024-01-30T04:49:29.989Z,68.26
2024-01-30T04:51:56.694Z,66.20
2024-01-30T04:54:23.364Z,68.29
2024-01-30T04:56:50.133Z,67.77
2024-01-30T04:59:16.757Z,68.47
2024-01-30T05:01:43.480Z,68.88
2024-01-30T05:04:12.839Z,68.57
2024-01-30T05:06:41.360Z,68.44
2024-01-30T05:09:08.074Z,68.27
2024-01-30T05:11:34.767Z,68.19
2024-01-30T05:14:01.379Z,68.68
2024-01-30T05:16:28.062Z,70.06
2024-01-30T05:18:54.864Z,69.33
2024-01-30T05:21:21.529Z,69.72
2024-01-30T05:23:48.166Z,68.45
2024-01-30T05:26:14.865Z,68.26
2024-01-30T05:28:41.489Z,68.60
2024-01-30T05:31:08.140Z,70.60
2024-01-30T05:33:34.974Z,71.11
2024-01-30T05:36:01.675Z,72.85
2024-01-30T05:38:28.307Z,71.57
2024-01-30T05:40:55.010Z,71.54
2024-01-30T05:43:21.750Z,72.34
2024-01-30T05:45:48.413Z,70.86
2024-01-30T05:48:15.124Z,70.90
2024-01-30T05:50:41.871Z,69.48
2024-01-30T05:53:08.563Z,69.52
2024-01-30T05:55:35.250Z,71.00
2024-01-30T05:58:01.933Z,68.87
2024-01-30T06:00:28.670Z,68.78
2024-01-30T06:02:55.432Z,67.89
2024-01-30T06:05:22.173Z,68.05
2024-01-30T06:07:49.064Z,70.45
2024-01-30T06:10:15.833Z,70.37
2024-01-30T06:12:42.837Z,70.39
2024-01-30T06:15:09.508Z,69.85
2024-01-30T06:17:36.250Z,69.94
2024-01-30T06:20:02.950Z,70.84
2024-01-30T06:22:29.740Z,70.90
2024-01-30T06:24:56.514Z,70.73
2024-01-30T06:27:23.163Z,71.25
2024-01-30T06:29:49.805Z,72.15
2024-01-30T06:32:16.509Z,72.54
2024-01-30T06:34:43.194Z,72.30
2024-01-30T06:37:09.904Z,71.72
2024-01-30T06:39:36.582Z,71.61
2024-01-30T06:42:03.205Z,72.81
2024-01-30T06:44:33.118Z,71.66
2024-01-30T06:47:00.171Z,69.96
2024-01-30T06:49:27.086Z,70.21
2024-01-30T06:51:53.877Z,69.81
2024-01-30T06:54:20.584Z,69.14
2024-01-30T06:56:47.232Z,69.33
2024-01-30T06:59:13.909Z,70.10
2024-01-30T07:01:40.704Z,71.08
2024-01-30T07:04:07.470Z,69.77
2024-01-30T07:06:34.169Z,69.19
2024-01-30T07:09:00.938Z,68.73
2024-01-30T07:11:27.576Z,69.19
2024-01-30T07:13:54.214Z,70.84
2024-01-30T07:16:21.200Z,71.70
2024-01-30T07:18:48.086Z,70.40
2024-01-30T07:21:14.809Z,70.43
2024-01-30T07:23:41.508Z,71.07
2024-01-30T07:26:08.162Z,70.72
2024-01-30T07:28:34.825Z,70.47
2024-01-30T07:31:01.576Z,70.26
2024-01-30T07:33:28.292Z,69.44
2024-01-30T07:35:54.974Z,69.87
2024-01-30T07:38:21.669Z,68.42
2024-01-30T07:40:48.285Z,70.48
2024-01-30T07:43:14.936Z,70.95
2024-01-30T07:45:41.644Z,70.01
2024-01-30T07:48:08.326Z,69.26
2024-01-30T07:50:35.072Z,66.99
2024-01-30T07:53:01.777Z,66.20
2024-01-30T07:55:28.546Z,66.87
2024-01-30T07:57:55.405Z,66.68
2024-01-30T08:00:22.116Z,65.67
2024-01-30T08:02:48.756Z,64.54
2024-01-30T08:05:15.460Z,65.94
2024-01-30T08:07:42.269Z,64.24
2024-01-30T08:10:08.924Z,64.10
2024-01-30T08:12:35.590Z,63.42
2024-01-30T08:15:02.322Z,65.77
2024-01-30T08:17:28.937Z,64.03
2024-01-30T08:19:55.619Z,64.28
2024-01-30T08:22:22.654Z,63.11
2024-01-30T08:24:49.366Z,62.51
2024-01-30T08:27:16.038Z,63.96
2024-01-30T08:29:42.728Z,63.40
2024-01-30T08:32:09.365Z,63.14
2024-01-30T08:34:36.157Z,62.59
2024-01-30T08:37:02.958Z,62.56
2024-01-30T08:39:29.606Z,60.77
2024-01-30T08:41:56.270Z,61.58
2024-01-30T08:44:22.967Z,60.31
2024-01-30T08:46:49.611Z,61.69
2024-01-30T08:49:16.359Z,61.25
2024-01-30T08:51:43.225Z,60.16
2024-01-30T08:54:09.924Z,59.07
2024-01-30T08:56:36.539Z,58.53
2024-01-30T08:59:03.235Z,58.96
2024-01-30T09:01:30.066Z,57.73
2024-01-30T09:03:56.832Z,59.13
2024-01-30T09:06:23.616Z,57.60
2024-01-30T09:08:50.262Z,55.92
2024-01-30T09:11:16.910Z,56.30
2024-01-30T09:13:43.625Z,55.73
2024-01-30T09:16:10.324Z,55.99
2024-01-30T09:18:37.057Z,54.64
2024-01-30T09:21:03.960Z,55.86
2024-01-30T09:23:30.613Z,55.19
2024-01-30T09:25:57.279Z,53.94
2024-01-30T09:28:27.019Z,53.17
2024-01-30T09:30:54.075Z,51.98
2024-01-30T09:33:20.805Z,51.41
2024-01-30T09:35:47.510Z,52.15
2024-01-30T09:38:14.353Z,52.09
2024-01-30T09:40:41.017Z,53.75
2024-01-30T09:43:07.775Z,52.72
2024-01-30T09:45:34.426Z,52.38
2024-01-30T09:48:01.101Z,50.92
2024-01-30T09:50:27.873Z,52.13
2024-01-30T09:52:54.503Z,51.37
2024-01-30T09:55:21.160Z,51.46
2024-01-30T09:57:47.927Z,50.95
2024-01-30T10:00:14.559Z,51.27
2024-01-30T10:02:41.245Z,51.12
2024-01-30T10:05:08.029Z,50.66
2024-01-30T10:07:34.833Z,53.18
2024-01-30T10:10:01.696Z,51.76
2024-01-30T10:12:28.482Z,50.54
2024-01-30T10:14:55.119Z,50.82
2024-01-30T10:17:28.743Z,53.76
2024-01-30T10:20:00.084Z,53.59
2024-01-30T10:22:27.491Z,51.63
2024-01-30T10:24:54.262Z,51.04
2024-01-30T10:27:20.992Z,51.07
2024-01-30T10:29:47.671Z,51.06
2024-01-30T10:32:14.330Z,50.13
2024-01-30T10:34:41.278Z,50.03
2024-01-30T10:37:08.066Z,50.35
2024-01-30T10:39:34.747Z,49.55
2024-01-30T10:42:01.460Z,49.46
2024-01-30T10:44:28.154Z,48.70
2024-01-30T10:46:54.804Z,48.33
2024-01-30T10:49:21.602Z,48.57
2024-01-30T10:51:48.296Z,48.92
2024-01-30T10:54:14.953Z,48.30
2024-01-30T10:56:41.687Z,49.48
2024-01-30T10:59:11.310Z,48.19
2024-01-30T11:01:38.806Z,48.17
2024-01-30T11:04:05.619Z,47.61
2024-01-30T11:06:32.338Z,48.06
2024-01-30T11:08:59.075Z,48.28
2024-01-30T11:14:10.153Z,47.85
2024-01-30T11:16:36.856Z,47.48
2024-01-30T11:19:03.585Z,46.91
2024-01-30T11:21:30.379Z,48.71
2024-01-30T11:23:57.033Z,47.39
2024-01-30T11:26:23.673Z,48.48
2024-01-30T11:28:50.384Z,46.97
2024-01-30T11:31:17.030Z,47.76
2024-01-30T11:33:43.762Z,46.08
2024-01-30T11:36:10.521Z,47.35
2024-01-30T11:38:37.188Z,46.71
2024-01-30T11:41:03.809Z,47.92
2024-01-30T11:43:30.545Z,46.61
2024-01-30T11:45:57.254Z,46.38
2024-01-30T11:48:23.993Z,45.21
2024-01-30T11:50:51.212Z,45.46
2024-01-30T11:53:17.850Z,45.20
2024-01-30T11:55:44.495Z,46.12
2024-01-30T11:58:11.242Z,45.63
2024-01-30T12:00:37.909Z,45.52
2024-01-30T12:03:05.010Z,45.95
2024-01-30T12:05:32.066Z,46.78
2024-01-30T12:07:58.772Z,47.02
2024-01-30T12:10:25.458Z,46.46
2024-01-30T12:12:52.280Z,45.50
2024-01-30T12:15:18.961Z,44.60
2024-01-30T12:17:48.156Z,43.73
2024-01-30T12:20:15.062Z,46.20
2024-01-30T12:22:41.750Z,45.50
2024-01-30T12:25:08.418Z,44.58
2024-01-30T12:27:35.115Z,44.74
2024-01-30T12:30:01.767Z,45.06
2024-01-30T12:32:28.420Z,44.29
2024-01-30T12:35:01.037Z,45.29
2024-01-30T12:37:28.903Z,44.75
2024-01-30T12:39:56.058Z,44.82
2024-01-30T12:42:22.797Z,43.74
2024-01-30T12:44:49.430Z,44.12
2024-01-30T12:47:16.161Z,46.96
2024-01-30T12:49:42.821Z,46.35
2024-01-30T12:52:09.620Z,44.15
2024-01-30T12:54:36.371Z,43.76
2024-01-30T12:57:03.036Z,45.88
2024-01-30T12:59:29.700Z,43.99
2024-01-30T13:01:56.486Z,43.63
2024-01-30T13:04:23.193Z,44.46
2024-01-30T13:06:49.932Z,42.86
2024-01-30T13:09:16.690Z,42.84
2024-01-30T13:11:43.353Z,41.99
2024-01-30T13:14:10.091Z,42.18
2024-01-30T13:16:36.844Z,41.56
2024-01-30T13:19:03.605Z,43.06
2024-01-30T13:21:30.272Z,41.92
2024-01-30T13:23:56.976Z,42.84
2024-01-30T13:26:23.614Z,42.29
2024-01-30T13:28:50.252Z,41.97
2024-01-30T13:31:16.967Z,41.40
2024-01-30T13:33:43.632Z,41.35
2024-01-30T13:36:10.264Z,41.76
2024-01-30T13:38:37.010Z,42.77
2024-01-30T13:41:03.688Z,43.52
2024-01-30T13:43:30.517Z,44.79
2024-01-30T13:45:57.314Z,45.28
2024-01-30T13:48:23.987Z,43.36
2024-01-30T13:50:50.644Z,44.14
2024-01-30T13:53:17.949Z,43.52
2024-01-30T13:55:44.646Z,44.59
2024-01-30T13:58:11.335Z,46.25
2024-01-30T14:00:38.057Z,44.91
2024-01-30T14:03:04.784Z,43.10
2024-01-30T14:05:31.636Z,43.73
2024-01-30T14:07:58.487Z,43.31
2024-01-30T14:10:25.372Z,43.06
2024-01-30T14:12:52.020Z,42.84
2024-01-30T14:15:24.054Z,42.63
2024-01-30T14:17:55.342Z,42.41
2024-01-30T14:20:22.442Z,42.50
2024-01-30T14:22:49.139Z,43.47
2024-01-30T14:25:15.827Z,43.37
2024-01-30T14:27:42.554Z,43.39
2024-01-30T14:30:09.186Z,43.74
2024-01-30T14:32:35.929Z,43.97
2024-01-30T14:35:02.670Z,44.01
2024-01-30T14:37:29.429Z,44.95
2024-01-30T14:39:56.151Z,44.81
2024-01-30T14:42:22.893Z,45.24
2024-01-30T14:44:49.566Z,45.76
2024-01-30T14:47:16.247Z,46.98
2024-01-30T14:49:43.243Z,45.86
2024-01-30T14:52:10.038Z,45.03
2024-01-30T14:54:36.687Z,45.53
2024-01-30T14:57:03.403Z,45.96
2024-01-30T14:59:30.010Z,45.73
2024-01-30T15:01:56.686Z,46.54
2024-01-30T15:04:23.464Z,46.80
2024-01-30T15:06:50.195Z,46.71
2024-01-30T15:09:16.865Z,46.48
2024-01-30T15:11:43.563Z,47.16
2024-01-30T15:14:10.186Z,47.51
2024-01-30T15:16:36.920Z,47.93
2024-01-30T15:19:03.827Z,47.62
2024-01-30T15:21:30.639Z,47.22
2024-01-30T15:23:57.302Z,47.74
2024-01-30T15:26:24.031Z,47.88
2024-01-30T15:28:50.677Z,47.94
2024-01-30T15:31:17.398Z,47.82
2024-01-30T15:33:44.300Z,47.75
2024-01-30T15:36:10.928Z,48.01
2024-01-30T15:38:37.536Z,47.88
2024-01-30T15:41:04.292Z,48.20
2024-01-30T15:43:31.030Z,48.25
2024-01-30T15:45:57.814Z,48.45
2024-01-30T15:48:24.579Z,48.85
2024-01-30T15:50:51.241Z,49.91
2024-01-30T15:53:17.879Z,50.78
2024-01-30T15:55:44.590Z,50.47
2024-01-30T15:58:11.289Z,50.34
2024-01-30T16:00:37.992Z,51.49
2024-01-30T16:03:04.787Z,51.43
2024-01-30T16:05:31.436Z,52.73
2024-01-30T16:07:58.080Z,52.53
2024-01-30T16:10:24.820Z,52.57
2024-01-30T16:12:51.481Z,52.38
2024-01-30T16:15:18.140Z,52.49
2024-01-30T16:17:44.853Z,53.13
2024-01-30T16:20:11.561Z,54.28
2024-01-30T16:22:38.285Z,54.20
2024-01-30T16:25:05.038Z,53.90
2024-01-30T16:27:31.689Z,54.02
2024-01-30T16:29:58.330Z,54.63
2024-01-30T16:32:25.075Z,55.92
2024-01-30T16:34:51.735Z,53.79
2024-01-30T16:37:18.457Z,53.80
2024-01-30T16:39:45.235Z,55.38
2024-01-30T16:42:11.863Z,55.60
2024-01-30T16:44:38.520Z,54.38
2024-01-30T16:47:05.201Z,54.24
2024-01-30T16:49:31.894Z,55.26
2024-01-30T16:52:01.338Z,54.76
2024-01-30T16:54:29.154Z,54.54
2024-01-30T16:56:55.775Z,55.52
2024-01-30T16:59:22.415Z,55.33
2024-01-30T17:01:49.384Z,55.47
2024-01-30T17:04:16.294Z,56.58
2024-01-30T17:06:42.973Z,56.21
2024-01-30T17:09:09.783Z,57.46
2024-01-30T17:11:36.458Z,57.29
2024-01-30T17:14:03.087Z,57.51
2024-01-30T17:16:29.897Z,58.80
2024-01-30T17:18:56.681Z,57.67
2024-01-30T17:21:23.349Z,58.12
2024-01-30T17:23:50.037Z,58.13
2024-01-30T17:26:16.824Z,59.67
2024-01-30T17:28:43.765Z,59.03
2024-01-30T17:31:10.578Z,60.08
2024-01-30T17:33:37.343Z,58.46
2024-01-30T17:36:04.057Z,59.00
2024-01-30T17:38:30.768Z,61.16
2024-01-30T17:41:05.308Z,59.78
2024-01-30T17:43:36.388Z,59.22
2024-01-30T17:46:03.065Z,61.47
2024-01-30T17:48:29.787Z,60.62
2024-01-30T17:50:56.572Z,60.99
2024-01-30T17:53:23.215Z,60.03
2024-01-30T17:55:49.889Z,61.17
2024-01-30T17:58:16.682Z,60.41
2024-01-30T18:00:43.363Z,62.03
2024-01-30T18:03:10.054Z,62.90
2024-01-30T18:05:36.815Z,61.46
2024-01-30T18:08:03.446Z,60.53
2024-01-30T18:10:30.160Z,60.82
2024-01-30T18:12:56.907Z,60.50
2024-01-30T18:15:23.538Z,61.04
2024-01-30T18:17:50.318Z,60.82
2024-01-30T18:20:17.125Z,61.22
2024-01-30T18:22:43.856Z,60.56
2024-01-30T18:25:10.566Z,59.79
2024-01-30T18:27:37.252Z,61.58
2024-01-30T18:30:03.918Z,63.10
2024-01-30T18:32:30.556Z,63.33
2024-01-30T18:34:57.275Z,63.60
2024-01-30T18:37:24.035Z,63.13
2024-01-30T18:39:50.809Z,63.37
2024-01-30T18:42:17.487Z,64.13
2024-01-30T18:44:44.115Z,63.20
2024-01-30T18:47:10.778Z,63.46
2024-01-30T18:49:37.596Z,62.78
2024-01-30T18:52:04.313Z,65.13
2024-01-30T18:54:30.942Z,65.56
2024-01-30T18:56:57.653Z,66.30
2024-01-30T18:59:24.266Z,66.20
2024-01-30T19:01:51.051Z,66.49
2024-01-30T19:04:18.070Z,65.61
2024-01-30T19:06:44.755Z,63.49
2024-01-30T19:09:11.396Z,65.12
2024-01-30T19:11:38.101Z,65.52
2024-01-30T19:14:04.761Z,62.87
2024-01-30T19:16:31.461Z,65.16
2024-01-30T19:18:58.329Z,64.38
2024-01-30T19:21:25.004Z,63.89
2024-01-30T19:23:51.661Z,65.98
2024-01-30T19:26:20.690Z,65.34
2024-01-30T19:28:47.346Z,64.70
2024-01-30T19:31:15.628Z,67.27
2024-01-30T19:33:43.017Z,68.25
2024-01-30T19:36:09.662Z,67.57
2024-01-30T19:38:36.286Z,66.48
2024-01-30T19:41:02.997Z,64.02
2024-01-30T19:43:29.706Z,63.20
2024-01-30T19:45:56.438Z,65.05
2024-01-30T19:48:23.227Z,65.88
2024-01-30T19:50:49.877Z,66.25
2024-01-30T19:53:16.637Z,66.01
2024-01-30T19:55:43.425Z,65.26
2024-01-30T19:58:10.120Z,66.98
2024-01-30T20:00:36.817Z,66.55
2024-01-30T20:03:03.547Z,66.87
2024-01-30T20:05:30.480Z,66.79
2024-01-30T20:07:57.330Z,66.86
2024-01-30T20:10:24.082Z,67.46
2024-01-30T20:12:50.752Z,66.99
2024-01-30T20:15:19.566Z,67.29
2024-01-30T20:17:46.440Z,68.09
2024-01-30T20:20:13.265Z,67.91
2024-01-30T20:22:40.041Z,67.46
2024-01-30T20:25:13.600Z,66.90
2024-01-30T20:27:45.090Z,65.88
2024-01-30T20:30:11.812Z,63.81
2024-01-30T20:32:38.422Z,66.49
2024-01-30T20:35:05.092Z,66.76
2024-01-30T20:37:31.931Z,68.01
2024-01-30T20:39:58.648Z,66.63
2024-01-30T20:42:25.267Z,67.07
2024-01-30T20:44:51.954Z,67.87
2024-01-30T20:47:18.635Z,66.41
2024-01-30T20:49:45.310Z,64.28
2024-01-30T20:52:12.102Z,64.14
2024-01-30T20:54:38.791Z,66.04
2024-01-30T20:57:05.413Z,66.30
2024-01-30T20:59:32.186Z,64.39
2024-01-30T21:01:58.883Z,65.59
2024-01-30T21:04:25.668Z,67.46
2024-01-30T21:06:52.423Z,67.92
2024-01-30T21:09:19.069Z,68.31
2024-01-30T21:11:45.703Z,67.76
2024-01-30T21:14:14.670Z,66.63
2024-01-30T21:16:41.668Z,64.31
2024-01-30T21:19:08.963Z,65.84
2024-01-30T21:21:35.694Z,66.21
2024-01-30T21:24:02.322Z,63.44
2024-01-30T21:26:28.948Z,66.90
2024-01-30T21:28:55.645Z,65.83
2024-01-30T21:31:22.313Z,64.16
2024-01-30T21:33:49.030Z,67.16
2024-01-30T21:36:15.797Z,68.13
2024-01-30T21:38:42.422Z,67.91
2024-01-30T21:41:09.062Z,69.41
2024-01-30T21:43:35.818Z,67.84
2024-01-30T21:46:02.541Z,66.58
2024-01-30T21:48:29.237Z,68.86
2024-01-30T21:50:55.925Z,67.95
2024-01-30T21:53:22.532Z,65.54
2024-01-30T21:55:49.187Z,68.14
2024-01-30T21:58:15.922Z,68.13
2024-01-30T22:00:42.638Z,69.39
2024-01-30T22:03:09.383Z,68.17
2024-01-30T22:05:36.164Z,70.40
2024-01-30T22:08:02.886Z,69.15
2024-01-30T22:10:29.725Z,68.76
2024-01-30T22:12:56.482Z,69.34
2024-01-30T22:15:23.127Z,67.18
2024-01-30T22:17:49.861Z,66.95
2024-01-30T22:20:16.744Z,69.06
2024-01-30T22:22:43.470Z,66.63
2024-01-30T22:25:10.208Z,65.60
2024-01-30T22:27:36.929Z,66.62
2024-01-30T22:30:03.540Z,65.94
2024-01-30T22:32:30.236Z,67.12
2024-01-30T22:34:57.052Z,68.25
2024-01-30T22:37:23.808Z,66.49
2024-01-30T22:39:50.436Z,68.35
2024-01-30T22:42:17.114Z,65.99
2024-01-30T22:44:43.724Z,69.22
2024-01-30T22:47:10.356Z,71.06
2024-01-30T22:49:37.182Z,68.33
2024-01-30T22:52:03.925Z,67.21
2024-01-30T22:54:30.577Z,65.58
2024-01-30T22:56:57.263Z,64.65
2024-01-30T22:59:23.897Z,64.90
2024-01-30T23:01:50.581Z,65.69
2024-01-30T23:04:17.392Z,67.12
2024-01-30T23:06:44.168Z,68.20
2024-01-30T23:09:10.965Z,68.05
2024-01-30T23:11:37.673Z,67.76
2024-01-30T23:14:04.298Z,68.25
2024-01-30T23:16:31.051Z,68.76
2024-01-30T23:18:57.875Z,68.00
2024-01-30T23:21:24.546Z,70.52
2024-01-30T23:23:51.171Z,70.72
2024-01-30T23:26:17.891Z,69.12
2024-01-30T23:28:44.640Z,68.45
2024-01-30T23:31:11.343Z,68.15
2024-01-30T23:33:38.079Z,69.25
2024-01-30T23:36:04.712Z,68.44
2024-01-30T23:38:31.346Z,68.20
2024-01-30T23:40:58.063Z,67.15
2024-01-30T23:43:26.775Z,66.71
2024-01-30T23:45:55.643Z,68.21
2024-01-30T23:48:22.631Z,67.02
2024-01-30T23:50:49.418Z,69.32
2024-01-30T23:53:16.033Z,67.77
2024-01-30T23:55:42.831Z,68.68
2024-01-30T23:58:09.598Z,68.22
